Terminal Aerodrome Forecast
Issued by NWS

Home | Current Version | Previous Version | Text Only | Print | Product List | Glossary Off
Versions: 1 2 3 4 5 6 7 8 9 10 11 12 13 14 15 16

000
FTUS43 KBIS 232008 AAA
TAFJMS
TAF AMD
KJMS 232008Z 2320/2418 17007KT P6SM SCT035 BKN050 BKN110
      TEMPO 2320/2322 BKN035 OVC050
     FM232200 33010KT P6SM SCT050 BKN110
     FM240200 28009KT P6SM SKC
     FM241500 30013KT P6SM FEW250=

USA.gov is the U.S. government's official web portal to all federal, state and local government web resources and services.